createdAt,value
2022-12-27T00:01:42.722Z,8.10
2022-12-27T00:04:10.814Z,8.00
2022-12-27T00:06:39.178Z,8.00
2022-12-27T00:09:07.543Z,7.90
2022-12-27T00:11:35.943Z,8.00
2022-12-27T00:14:06.152Z,8.00
2022-12-27T00:16:35.347Z,8.00
2022-12-27T00:19:05.238Z,7.90
2022-12-27T00:21:34.978Z,7.90
2022-12-27T00:24:03.192Z,7.80
2022-12-27T00:26:34.049Z,7.80
2022-12-27T00:29:03.059Z,7.80
2022-12-27T00:31:32.611Z,7.80
2022-12-27T00:34:02.767Z,7.80
2022-12-27T00:36:33.337Z,7.70
2022-12-27T00:39:01.998Z,7.70
2022-12-27T00:41:30.012Z,7.70
2022-12-27T00:43:58.098Z,7.70
2022-12-27T00:46:26.121Z,7.70
2022-12-27T00:48:55.342Z,7.60
2022-12-27T00:51:25.960Z,7.60
2022-12-27T00:53:55.798Z,7.70
2022-12-27T00:56:26.921Z,7.70
2022-12-27T00:58:55.402Z,7.70
2022-12-27T01:01:25.101Z,7.80
2022-12-27T01:03:53.714Z,7.80
2022-12-27T01:06:25.746Z,7.90
2022-12-27T01:08:55.143Z,8.00
2022-12-27T01:11:23.487Z,8.00
2022-12-27T01:13:51.590Z,8.00
2022-12-27T01:16:22.290Z,8.00
2022-12-27T01:18:51.269Z,8.00
2022-12-27T01:21:21.588Z,8.00
2022-12-27T01:23:50.186Z,8.20
2022-12-27T01:26:21.528Z,8.20
2022-12-27T01:28:50.479Z,8.10
2022-12-27T01:31:23.306Z,8.10
2022-12-27T01:33:55.650Z,8.10
2022-12-27T01:36:25.345Z,8.10
2022-12-27T01:38:53.402Z,8.10
2022-12-27T01:41:42.911Z,8.10
2022-12-27T01:44:49.557Z,8.20
2022-12-27T01:47:25.267Z,8.10
2022-12-27T01:50:01.979Z,8.00
2022-12-27T01:52:35.206Z,8.00
2022-12-27T01:55:11.600Z,8.10
2022-12-27T01:57:41.917Z,8.10
2022-12-27T02:00:11.575Z,8.20
2022-12-27T02:02:40.503Z,8.20
2022-12-27T02:05:11.078Z,8.20
2022-12-27T02:07:45.932Z,8.20
2022-12-27T02:10:14.401Z,8.20
2022-12-27T02:12:43.781Z,8.10
2022-12-27T02:15:12.438Z,8.20
2022-12-27T02:17:40.541Z,8.20
2022-12-27T02:20:13.415Z,8.10
2022-12-27T02:23:45.054Z,8.20
2022-12-27T02:26:40.635Z,8.20
2022-12-27T02:29:33.441Z,8.20
2022-12-27T02:32:06.874Z,8.20
2022-12-27T02:34:43.223Z,8.20
2022-12-27T02:37:14.154Z,8.10
2022-12-27T02:39:46.631Z,8.10
2022-12-27T02:42:34.731Z,8.00
2022-12-27T02:45:25.706Z,8.00
2022-12-27T02:48:11.648Z,8.10
2022-12-27T02:51:09.681Z,8.00
2022-12-27T02:53:49.524Z,8.00
2022-12-27T02:56:49.113Z,8.10
2022-12-27T02:59:30.736Z,8.10
2022-12-27T03:02:36.116Z,8.00
2022-12-27T03:05:19.985Z,8.00
2022-12-27T03:07:52.358Z,8.10
2022-12-27T03:10:49.736Z,8.00
2022-12-27T03:13:43.883Z,8.00
2022-12-27T03:16:20.369Z,8.00
2022-12-27T03:19:04.380Z,8.00
2022-12-27T03:21:52.675Z,8.00
2022-12-27T03:24:41.952Z,8.00
2022-12-27T03:27:17.950Z,7.90
2022-12-27T03:30:11.010Z,8.00
2022-12-27T03:33:05.617Z,8.00
2022-12-27T03:35:39.705Z,8.00
2022-12-27T03:38:10.130Z,8.00
2022-12-27T03:41:01.809Z,7.90
2022-12-27T03:43:30.368Z,7.90
2022-12-27T03:46:26.281Z,7.80
2022-12-27T03:49:17.177Z,7.80
2022-12-27T03:51:52.529Z,7.70
2022-12-27T03:54:26.296Z,7.70
2022-12-27T03:56:57.056Z,7.80
2022-12-27T03:59:27.092Z,7.70
2022-12-27T04:01:55.649Z,7.70
2022-12-27T04:04:24.016Z,7.70
2022-12-27T04:06:53.451Z,7.80
2022-12-27T04:09:39.195Z,7.70
2022-12-27T04:12:25.011Z,7.70
2022-12-27T04:15:10.474Z,7.80
2022-12-27T04:17:56.043Z,7.80
2022-12-27T04:20:41.844Z,7.80
2022-12-27T04:23:29.280Z,7.80
2022-12-27T04:26:14.935Z,7.80
2022-12-27T04:29:00.851Z,7.80
2022-12-27T04:31:46.417Z,7.80
2022-12-27T04:34:31.797Z,7.70
2022-12-27T04:36:59.869Z,7.60
2022-12-27T04:39:29.266Z,7.60
2022-12-27T04:42:14.845Z,7.50
2022-12-27T04:45:00.214Z,7.50
2022-12-27T04:47:46.113Z,7.50
2022-12-27T04:50:40.131Z,7.50
2022-12-27T04:53:32.234Z,7.50
2022-12-27T04:56:01.995Z,7.50
2022-12-27T04:58:30.617Z,7.40
2022-12-27T05:01:19.800Z,7.40
2022-12-27T05:03:50.237Z,7.40
2022-12-27T05:06:19.641Z,7.40
2022-12-27T05:09:05.662Z,7.40
2022-12-27T05:11:52.455Z,7.50
2022-12-27T05:14:20.503Z,7.40
2022-12-27T05:16:48.555Z,7.40
2022-12-27T05:19:16.608Z,7.40
2022-12-27T05:22:06.668Z,7.40
2022-12-27T05:24:52.171Z,7.40
2022-12-27T05:27:21.557Z,7.40
2022-12-27T05:29:49.585Z,7.40
2022-12-27T05:32:17.639Z,7.40
2022-12-27T05:34:46.698Z,7.40
2022-12-27T05:37:14.827Z,7.40
2022-12-27T05:39:42.948Z,7.30
2022-12-27T05:42:11.321Z,7.30
2022-12-27T05:44:40.671Z,7.30
2022-12-27T05:47:08.702Z,7.30
2022-12-27T05:49:37.353Z,7.30
2022-12-27T05:52:05.777Z,7.30
2022-12-27T05:54:33.774Z,7.40
2022-12-27T05:57:01.798Z,7.40
2022-12-27T05:59:29.848Z,7.40
2022-12-27T06:01:59.289Z,7.40
2022-12-27T06:04:27.388Z,7.40
2022-12-27T06:06:55.399Z,7.40
2022-12-27T06:09:23.944Z,7.40
2022-12-27T06:11:53.011Z,7.40
2022-12-27T06:14:21.055Z,7.40
2022-12-27T06:16:49.169Z,7.50
2022-12-27T06:19:18.603Z,7.50
2022-12-27T06:21:47.063Z,7.50
2022-12-27T06:24:15.306Z,7.50
2022-12-27T06:26:43.757Z,7.50
2022-12-27T06:29:13.257Z,7.40
2022-12-27T06:31:41.431Z,7.40
2022-12-27T06:34:11.742Z,7.50
2022-12-27T06:36:41.104Z,7.40
2022-12-27T06:39:09.088Z,7.30
2022-12-27T06:41:37.114Z,7.30
2022-12-27T06:44:05.456Z,7.20
2022-12-27T06:46:33.474Z,7.20
2022-12-27T06:49:01.540Z,7.20
2022-12-27T06:51:30.978Z,7.30
2022-12-27T06:54:00.356Z,7.30
2022-12-27T06:56:28.564Z,7.20
2022-12-27T06:58:56.680Z,7.30
2022-12-27T07:01:27.968Z,7.20
2022-12-27T07:03:58.598Z,7.20
2022-12-27T07:06:29.183Z,7.20
2022-12-27T07:08:58.010Z,7.20
2022-12-27T07:11:27.399Z,7.10
2022-12-27T07:13:56.577Z,7.10
2022-12-27T07:16:26.149Z,7.10
2022-12-27T07:18:55.124Z,7.20
2022-12-27T07:21:24.323Z,7.10
2022-12-27T07:23:52.764Z,7.10
2022-12-27T07:26:23.780Z,7.20
2022-12-27T07:28:54.614Z,7.10
2022-12-27T07:31:26.374Z,7.10
2022-12-27T07:33:54.620Z,7.10
2022-12-27T07:36:25.426Z,7.20
2022-12-27T07:38:53.502Z,7.10
2022-12-27T07:41:21.813Z,7.10
2022-12-27T07:43:49.946Z,7.10
2022-12-27T07:46:21.567Z,7.10
2022-12-27T07:48:50.190Z,7.10
2022-12-27T07:51:18.836Z,7.00
2022-12-27T07:53:49.428Z,7.00
2022-12-27T07:56:25.455Z,6.90
2022-12-27T07:58:55.342Z,7.00
2022-12-27T08:01:26.592Z,7.00
2022-12-27T08:03:54.776Z,7.00
2022-12-27T08:06:25.980Z,7.10
2022-12-27T08:08:54.909Z,7.10
2022-12-27T08:11:23.237Z,7.10
2022-12-27T08:13:51.349Z,7.00
2022-12-27T08:16:22.801Z,7.10
2022-12-27T08:18:53.058Z,7.10
2022-12-27T08:21:21.222Z,7.20
2022-12-27T08:23:49.289Z,7.30
2022-12-27T08:26:17.453Z,7.30
2022-12-27T08:28:45.529Z,7.40
2022-12-27T08:31:14.898Z,7.40
2022-12-27T08:33:43.000Z,7.50
2022-12-27T08:36:54.204Z,7.60
2022-12-27T08:39:01.950Z,7.60
2022-12-27T08:41:30.005Z,7.60
2022-12-27T08:43:58.017Z,7.70
2022-12-27T08:46:26.305Z,7.80
2022-12-27T08:48:54.393Z,7.80
2022-12-27T08:51:34.246Z,8.00
2022-12-27T08:54:06.829Z,8.00
2022-12-27T08:56:34.879Z,8.10
2022-12-27T08:59:03.321Z,8.10
2022-12-27T09:01:31.588Z,8.20
2022-12-27T09:03:59.707Z,8.20
2022-12-27T09:06:29.065Z,8.20
2022-12-27T09:08:57.462Z,8.30
2022-12-27T09:11:27.085Z,8.20
2022-12-27T09:13:55.774Z,8.20
2022-12-27T09:16:27.442Z,8.30
2022-12-27T09:18:57.282Z,8.30
2022-12-27T09:21:27.140Z,8.30
2022-12-27T09:23:56.900Z,8.40
2022-12-27T09:26:29.059Z,8.40
2022-12-27T09:28:57.951Z,8.40
2022-12-27T09:31:27.023Z,8.40
2022-12-27T09:33:55.395Z,8.50
2022-12-27T09:36:26.206Z,8.50
2022-12-27T09:38:56.702Z,8.60
2022-12-27T09:44:38.946Z,8.80
2022-12-27T09:47:14.147Z,8.80
2022-12-27T09:49:46.291Z,8.80
2022-12-27T09:52:18.223Z,8.80
2022-12-27T09:55:04.365Z,8.80
2022-12-27T09:57:37.636Z,8.80
2022-12-27T10:00:14.545Z,8.90
2022-12-27T10:02:44.432Z,8.90
2022-12-27T10:05:21.705Z,8.80
2022-12-27T10:08:06.673Z,8.80
2022-12-27T10:10:43.545Z,8.80
2022-12-27T10:13:29.299Z,8.90
2022-12-27T10:16:08.685Z,8.90
2022-12-27T10:18:47.543Z,8.80
2022-12-27T10:21:21.590Z,8.80
2022-12-27T10:23:55.563Z,9.00
2022-12-27T10:26:26.757Z,9.00
2022-12-27T10:29:01.200Z,8.90
2022-12-27T10:31:31.083Z,8.80
2022-12-27T10:33:59.322Z,8.70
2022-12-27T10:36:29.003Z,8.80
2022-12-27T10:38:57.037Z,9.00
2022-12-27T10:41:37.030Z,8.80
2022-12-27T10:44:11.529Z,8.70
2022-12-27T10:46:40.108Z,8.60
2022-12-27T10:49:21.874Z,8.70
2022-12-27T10:51:52.421Z,8.60
2022-12-27T10:54:25.837Z,8.70
2022-12-27T10:56:56.128Z,8.80
2022-12-27T10:59:26.862Z,8.80
2022-12-27T11:02:16.578Z,8.70
2022-12-27T11:04:58.838Z,8.70
2022-12-27T11:07:31.423Z,8.70
2022-12-27T11:10:08.807Z,8.70
2022-12-27T11:12:38.230Z,8.80
2022-12-27T11:15:18.603Z,8.90
2022-12-27T11:17:49.893Z,8.80
2022-12-27T11:20:22.830Z,8.90
2022-12-27T11:22:53.788Z,8.90
2022-12-27T11:25:22.296Z,8.80
2022-12-27T11:27:55.197Z,8.80
2022-12-27T11:30:26.467Z,8.70
2022-12-27T11:32:54.658Z,8.70
2022-12-27T11:35:24.151Z,8.60
2022-12-27T11:37:52.829Z,8.90
2022-12-27T11:40:27.825Z,9.00
2022-12-27T11:43:05.584Z,9.10
2022-12-27T11:45:39.865Z,9.00
2022-12-27T11:48:19.827Z,8.90
2022-12-27T11:51:03.311Z,8.90
2022-12-27T11:53:57.951Z,8.80
2022-12-27T11:56:29.900Z,8.80
2022-12-27T11:59:40.207Z,8.80
2022-12-27T12:02:25.190Z,8.80
2022-12-27T12:05:33.935Z,8.90
2022-12-27T12:08:15.512Z,8.90
2022-12-27T12:10:50.533Z,8.80
2022-12-27T12:13:42.842Z,8.80
2022-12-27T12:16:54.375Z,8.90
2022-12-27T12:19:42.380Z,8.90
2022-12-27T12:22:35.677Z,8.90
2022-12-27T12:25:30.787Z,8.90
2022-12-27T12:28:55.593Z,8.90
2022-12-27T12:31:24.671Z,9.00
2022-12-27T12:34:08.801Z,9.10
2022-12-27T12:37:06.123Z,9.00
2022-12-27T12:39:53.305Z,8.90
2022-12-27T12:42:27.971Z,8.80
2022-12-27T12:45:17.115Z,8.90
2022-12-27T12:48:12.145Z,8.70
2022-12-27T12:51:02.766Z,8.80
2022-12-27T12:53:51.309Z,8.80
2022-12-27T12:56:33.821Z,8.80
2022-12-27T12:59:21.683Z,8.80
2022-12-27T13:01:58.845Z,8.80
2022-12-27T13:04:43.830Z,8.90
2022-12-27T13:07:28.080Z,9.00
2022-12-27T13:10:19.110Z,9.00
2022-12-27T13:12:53.157Z,9.00
2022-12-27T13:15:30.091Z,9.10
2022-12-27T13:18:11.957Z,9.10
2022-12-27T13:20:51.724Z,9.10
2022-12-27T13:23:31.682Z,9.10
2022-12-27T13:26:09.545Z,9.10
2022-12-27T13:28:47.416Z,9.10
2022-12-27T13:31:29.209Z,9.00
2022-12-27T13:34:08.517Z,9.10
2022-12-27T13:36:46.004Z,9.00
2022-12-27T13:39:32.177Z,9.00
2022-12-27T13:42:20.276Z,9.00
2022-12-27T13:44:59.075Z,9.00
2022-12-27T13:47:48.523Z,9.00
2022-12-27T13:50:34.565Z,9.00
2022-12-27T13:53:29.648Z,9.00
2022-12-27T13:56:27.177Z,9.00
2022-12-27T13:59:13.918Z,8.90
2022-12-27T14:01:52.749Z,8.80
2022-12-27T14:04:43.016Z,8.80
2022-12-27T14:07:31.518Z,8.90
2022-12-27T14:10:12.167Z,8.80
2022-12-27T14:13:00.127Z,8.70
2022-12-27T14:15:38.501Z,8.80
2022-12-27T14:18:24.303Z,8.70
2022-12-27T14:21:04.775Z,8.70
2022-12-27T14:23:49.120Z,8.70
2022-12-27T14:26:54.620Z,8.60
2022-12-27T14:29:55.560Z,8.60
2022-12-27T14:32:53.187Z,8.60
2022-12-27T14:35:57.436Z,8.60
2022-12-27T14:39:07.549Z,8.60
2022-12-27T14:42:16.612Z,8.60
2022-12-27T14:45:10.823Z,8.60
2022-12-27T14:48:03.921Z,8.50
2022-12-27T14:51:26.177Z,8.60
2022-12-27T14:54:26.839Z,8.60
2022-12-27T14:57:03.693Z,8.70
2022-12-27T14:59:42.334Z,8.60
2022-12-27T15:02:35.598Z,8.60
2022-12-27T15:05:21.808Z,8.60
2022-12-27T15:08:25.614Z,8.60
2022-12-27T15:11:08.199Z,8.50
2022-12-27T15:13:52.598Z,8.50
2022-12-27T15:16:32.095Z,8.60
2022-12-27T15:19:18.028Z,8.60
2022-12-27T15:21:58.658Z,8.70
2022-12-27T15:24:39.723Z,8.60
2022-12-27T15:27:20.021Z,8.60
2022-12-27T15:30:06.316Z,8.60
2022-12-27T15:32:51.213Z,8.70
2022-12-27T15:35:44.576Z,8.60
2022-12-27T15:38:15.344Z,8.60
2022-12-27T15:41:22.435Z,8.60
2022-12-27T15:44:23.915Z,8.50
2022-12-27T15:47:09.059Z,8.50
2022-12-27T15:50:02.925Z,8.50
2022-12-27T15:52:41.945Z,8.50
2022-12-27T15:55:37.898Z,8.40
2022-12-27T15:58:15.868Z,8.40
2022-12-27T16:00:45.107Z,8.40
2022-12-27T16:03:35.439Z,8.40
2022-12-27T16:06:04.656Z,8.40
2022-12-27T16:08:39.916Z,8.40
2022-12-27T16:11:11.192Z,8.40
2022-12-27T16:13:50.820Z,8.40
2022-12-27T16:16:55.785Z,8.40
2022-12-27T16:20:03.938Z,8.40
2022-12-27T16:22:36.219Z,8.40
2022-12-27T16:25:30.354Z,8.50
2022-12-27T16:28:03.261Z,8.50
2022-12-27T16:30:36.883Z,8.40
2022-12-27T16:33:05.614Z,8.40
2022-12-27T16:35:34.149Z,8.40
2022-12-27T16:38:04.448Z,8.30
2022-12-27T16:40:45.762Z,8.40
2022-12-27T16:43:46.815Z,8.30
2022-12-27T16:46:46.851Z,8.40
2022-12-27T16:49:35.190Z,8.40
2022-12-27T16:52:41.842Z,8.30
2022-12-27T16:55:27.516Z,8.20
2022-12-27T16:58:21.134Z,8.20
2022-12-27T17:00:50.834Z,8.20
2022-12-27T17:03:42.167Z,8.20
2022-12-27T17:06:47.559Z,8.10
2022-12-27T17:09:38.761Z,8.00
2022-12-27T17:12:13.431Z,8.10
2022-12-27T17:14:44.184Z,8.20
2022-12-27T17:17:18.471Z,8.20
2022-12-27T17:19:50.977Z,8.10
2022-12-27T17:22:19.785Z,8.00
2022-12-27T17:24:51.086Z,8.00
2022-12-27T17:27:27.294Z,8.00
2022-12-27T17:30:12.216Z,8.10
2022-12-27T17:33:13.801Z,8.10
2022-12-27T17:36:00.206Z,8.10
2022-12-27T17:38:40.904Z,8.10
2022-12-27T17:41:18.426Z,8.10
2022-12-27T17:44:14.356Z,8.10
2022-12-27T17:46:53.328Z,8.00
2022-12-27T17:49:27.992Z,8.10
2022-12-27T17:52:14.985Z,8.10
2022-12-27T17:55:00.380Z,8.10
2022-12-27T17:57:45.859Z,8.20
2022-12-27T18:00:24.232Z,8.20
2022-12-27T18:02:56.084Z,8.20
2022-12-27T18:05:28.647Z,8.20
2022-12-27T18:08:02.479Z,8.10
2022-12-27T18:10:31.565Z,8.10
2022-12-27T18:13:02.453Z,8.20
2022-12-27T18:15:34.092Z,8.10
2022-12-27T18:18:05.978Z,8.10
2022-12-27T18:20:36.911Z,8.10
2022-12-27T18:23:19.454Z,8.10
2022-12-27T18:25:57.019Z,8.00
2022-12-27T18:28:32.634Z,8.00
2022-12-27T18:31:09.355Z,8.00
2022-12-27T18:33:43.517Z,8.00
2022-12-27T18:36:16.976Z,8.00
2022-12-27T18:38:47.526Z,8.00
2022-12-27T18:41:18.208Z,7.90
2022-12-27T18:43:48.130Z,8.00
2022-12-27T18:46:18.564Z,7.90
2022-12-27T18:48:48.938Z,7.90
2022-12-27T18:51:17.034Z,8.00
2022-12-27T18:53:45.755Z,8.00
2022-12-27T18:56:29.190Z,8.00
2022-12-27T18:59:01.659Z,7.90
2022-12-27T19:01:38.196Z,7.90
2022-12-27T19:04:32.733Z,7.90
2022-12-27T19:07:10.493Z,8.00
2022-12-27T19:09:41.446Z,7.90
2022-12-27T19:12:22.225Z,8.00
2022-12-27T19:14:50.639Z,8.00
2022-12-27T19:17:21.915Z,7.90
2022-12-27T19:19:54.449Z,7.90
2022-12-27T19:22:35.856Z,7.80
2022-12-27T19:25:06.914Z,7.90
2022-12-27T19:27:35.186Z,7.80
2022-12-27T19:30:03.306Z,7.80
2022-12-27T19:32:34.905Z,7.80
2022-12-27T19:35:06.172Z,7.70
2022-12-27T19:37:35.587Z,7.70
2022-12-27T19:40:03.917Z,7.80
2022-12-27T19:42:34.805Z,7.60
2022-12-27T19:45:03.012Z,7.60
2022-12-27T19:47:32.968Z,7.40
2022-12-27T19:50:00.960Z,7.30
2022-12-27T19:52:30.436Z,7.30
2022-12-27T19:55:03.312Z,7.30
2022-12-27T19:57:31.588Z,7.30
2022-12-27T19:59:59.619Z,7.20
2022-12-27T20:02:27.932Z,7.20
2022-12-27T20:04:56.706Z,7.40
2022-12-27T20:07:26.301Z,7.30
2022-12-27T20:09:55.655Z,7.30
2022-12-27T20:12:23.700Z,7.30
2022-12-27T20:14:51.975Z,7.30
2022-12-27T20:17:20.289Z,7.30
2022-12-27T20:19:48.420Z,7.40
2022-12-27T20:22:16.467Z,7.40
2022-12-27T20:24:46.456Z,7.30
2022-12-27T20:27:15.891Z,7.40
2022-12-27T20:29:45.989Z,7.40
2022-12-27T20:32:14.062Z,7.30
2022-12-27T20:34:42.437Z,7.30
2022-12-27T20:37:10.826Z,7.40
2022-12-27T20:39:39.013Z,7.40
2022-12-27T20:42:07.345Z,7.50
2022-12-27T20:44:36.751Z,7.50
2022-12-27T20:47:04.828Z,7.50
2022-12-27T20:49:32.875Z,7.50
2022-12-27T20:52:00.891Z,7.50
2022-12-27T20:54:28.921Z,7.40
2022-12-27T20:56:56.989Z,7.40
2022-12-27T20:59:25.030Z,7.50
2022-12-27T21:01:57.181Z,7.40
2022-12-27T21:04:26.666Z,7.40
2022-12-27T21:06:54.798Z,7.40
2022-12-27T21:09:23.626Z,7.50
2022-12-27T21:11:52.637Z,7.50
2022-12-27T21:14:20.652Z,7.50
2022-12-27T21:16:50.062Z,7.50
2022-12-27T21:19:19.855Z,7.60
2022-12-27T21:21:47.878Z,7.70
2022-12-27T21:24:15.907Z,7.60
2022-12-27T21:26:43.915Z,7.70
2022-12-27T21:29:12.149Z,7.70
2022-12-27T21:31:40.216Z,7.70
2022-12-27T21:34:08.399Z,7.70
2022-12-27T21:36:39.200Z,7.70
2022-12-27T21:39:07.803Z,7.70
2022-12-27T21:41:37.943Z,7.70
2022-12-27T21:44:06.435Z,7.70
2022-12-27T21:46:37.032Z,7.70
2022-12-27T21:49:07.182Z,7.60
2022-12-27T21:51:37.874Z,7.60
2022-12-27T21:54:06.620Z,7.60
2022-12-27T21:56:34.945Z,7.60
2022-12-27T21:59:05.457Z,7.70
2022-12-27T22:01:50.066Z,7.70
2022-12-27T22:04:19.769Z,7.60
2022-12-27T22:06:49.550Z,7.60
2022-12-27T22:09:18.905Z,7.60
2022-12-27T22:11:47.053Z,7.70
2022-12-27T22:14:15.074Z,7.70
2022-12-27T22:16:43.301Z,7.80
2022-12-27T22:19:13.495Z,7.80
2022-12-27T22:21:42.729Z,7.70
2022-12-27T22:24:17.153Z,7.70
2022-12-27T22:26:45.239Z,7.70
2022-12-27T22:29:13.241Z,7.70
2022-12-27T22:31:42.796Z,7.70
2022-12-27T22:34:10.867Z,7.70
2022-12-27T22:36:38.918Z,7.70
2022-12-27T22:39:07.130Z,7.70
2022-12-27T22:41:37.689Z,7.70
2022-12-27T22:44:07.460Z,7.70
2022-12-27T22:47:24.581Z,7.80
2022-12-27T22:49:23.943Z,7.80
2022-12-27T22:51:51.983Z,7.70
2022-12-27T22:54:20.076Z,7.70
2022-12-27T22:56:49.653Z,7.60
2022-12-27T22:59:17.662Z,7.70
2022-12-27T23:01:46.345Z,7.70
2022-12-27T23:04:15.149Z,7.80
2022-12-27T23:06:45.204Z,7.60
2022-12-27T23:09:13.291Z,7.70
2022-12-27T23:11:42.142Z,7.70
2022-12-27T23:14:14.612Z,7.70
2022-12-27T23:16:44.107Z,7.70
2022-12-27T23:19:13.624Z,7.60
2022-12-27T23:21:42.178Z,7.60
2022-12-27T23:24:11.595Z,7.50
2022-12-27T23:26:40.349Z,7.50
2022-12-27T23:29:08.597Z,7.60
2022-12-27T23:31:54.912Z,7.60
2022-12-27T23:34:28.325Z,7.60
2022-12-27T23:36:57.114Z,7.60
2022-12-27T23:39:25.195Z,7.60
2022-12-27T23:41:53.250Z,7.70
2022-12-27T23:44:33.902Z,7.50
2022-12-27T23:47:05.641Z,7.50
2022-12-27T23:49:34.109Z,7.60
2022-12-27T23:52:02.743Z,7.70
2022-12-27T23:54:30.905Z,7.60
2022-12-27T23:57:22.210Z,7.50
2022-12-27T23:59:47.037Z,7.50
